createdAt,value
2023-10-06T00:03:58.461Z,15.84
2023-10-06T00:09:06.553Z,15.80
2023-10-06T00:14:20.289Z,15.88
2023-10-06T00:19:27.826Z,15.86
2023-10-06T00:24:32.534Z,15.84
2023-10-06T00:29:38.522Z,15.92
2023-10-06T00:34:41.441Z,15.83
2023-10-06T00:39:45.728Z,15.84
2023-10-06T00:44:50.303Z,15.94
2023-10-06T00:49:56.572Z,15.90
2023-10-06T00:55:05.466Z,15.85
2023-10-06T01:00:17.631Z,15.93
2023-10-06T01:05:21.430Z,15.97
2023-10-06T01:10:29.320Z,15.90
2023-10-06T01:15:33.892Z,16.00
2023-10-06T01:20:42.227Z,15.94
2023-10-06T01:25:46.455Z,16.00
2023-10-06T01:30:51.603Z,15.94
2023-10-06T01:35:56.082Z,16.07
2023-10-06T01:41:03.529Z,16.21
2023-10-06T01:46:09.082Z,16.14
2023-10-06T01:51:16.199Z,16.15
2023-10-06T01:56:23.384Z,16.21
2023-10-06T02:01:26.353Z,16.14
2023-10-06T02:06:30.730Z,16.12
2023-10-06T02:11:35.028Z,16.21
2023-10-06T02:16:38.331Z,16.13
2023-10-06T02:21:43.858Z,16.19
2023-10-06T02:26:51.898Z,16.14
2023-10-06T02:32:02.078Z,15.99
2023-10-06T02:37:05.563Z,16.03
2023-10-06T02:42:10.741Z,16.06
2023-10-06T02:47:15.511Z,16.01
2023-10-06T02:52:22.162Z,16.04
2023-10-06T02:57:26.866Z,16.10
2023-10-06T03:02:33.567Z,16.01
2023-10-06T03:07:39.674Z,16.04
2023-10-06T03:12:44.856Z,16.08
2023-10-06T03:17:47.954Z,16.01
2023-10-06T03:22:53.033Z,15.98
2023-10-06T03:27:58.899Z,15.89
2023-10-06T03:33:04.789Z,15.67
2023-10-06T03:38:28.746Z,15.62
2023-10-06T03:43:36.928Z,15.53
2023-10-06T03:48:40.660Z,15.50
2023-10-06T03:53:45.985Z,15.48
2023-10-06T03:58:50.572Z,15.45
2023-10-06T04:03:54.900Z,15.33
2023-10-06T04:09:00.607Z,15.26
2023-10-06T04:14:05.697Z,15.24
2023-10-06T04:19:08.655Z,15.12
2023-10-06T04:24:11.885Z,15.01
2023-10-06T04:29:16.117Z,14.98
2023-10-06T04:34:28.203Z,14.83
2023-10-06T04:39:31.060Z,14.82
2023-10-06T04:44:35.783Z,14.90
2023-10-06T04:49:38.671Z,14.90
2023-10-06T04:54:41.805Z,14.94
2023-10-06T04:59:46.758Z,15.03
2023-10-06T05:04:49.642Z,14.99
2023-10-06T05:09:56.570Z,15.09
2023-10-06T05:15:01.213Z,15.11
2023-10-06T05:20:05.626Z,15.09
2023-10-06T05:25:14.313Z,15.17
2023-10-06T05:30:18.609Z,15.23
2023-10-06T05:35:24.134Z,15.17
2023-10-06T05:40:30.736Z,15.18
2023-10-06T05:45:35.179Z,15.22
2023-10-06T05:50:38.317Z,15.17
2023-10-06T05:55:42.576Z,15.20
2023-10-06T06:00:52.134Z,15.23
2023-10-06T06:05:58.565Z,15.27
2023-10-06T06:11:01.934Z,15.18
2023-10-06T06:16:07.162Z,15.19
2023-10-06T06:21:10.329Z,15.16
2023-10-06T06:26:13.204Z,15.14
2023-10-06T06:31:19.407Z,15.12
2023-10-06T06:36:22.449Z,14.98
2023-10-06T06:41:25.363Z,14.95
2023-10-06T06:46:31.258Z,15.06
2023-10-06T06:51:36.617Z,15.00
2023-10-06T06:56:39.686Z,15.07
2023-10-06T07:01:43.896Z,15.05
2023-10-06T07:06:46.944Z,15.00
2023-10-06T07:11:51.124Z,14.88
2023-10-06T07:16:55.592Z,14.98
2023-10-06T07:21:58.462Z,14.75
2023-10-06T07:27:01.301Z,15.08
2023-10-06T07:32:06.206Z,15.21
2023-10-06T07:37:09.166Z,15.31
2023-10-06T07:42:14.389Z,15.31
2023-10-06T07:47:25.458Z,15.46
2023-10-06T07:52:28.390Z,15.61
2023-10-06T07:57:34.077Z,15.74
2023-10-06T08:02:40.463Z,15.79
2023-10-06T08:07:45.027Z,15.99
2023-10-06T08:12:51.163Z,16.08
2023-10-06T08:17:57.067Z,15.89
2023-10-06T08:23:01.027Z,16.01
2023-10-06T08:28:06.224Z,16.08
2023-10-06T08:33:10.911Z,16.22
2023-10-06T08:38:13.853Z,16.52
2023-10-06T08:43:20.178Z,16.57
2023-10-06T08:48:26.433Z,16.56
2023-10-06T08:53:33.454Z,16.87
2023-10-06T08:58:37.392Z,17.01
2023-10-06T09:03:41.922Z,17.15
2023-10-06T09:08:47.005Z,17.02
2023-10-06T09:14:08.873Z,17.45
2023-10-06T09:19:13.621Z,17.52
2023-10-06T09:24:20.731Z,17.52
2023-10-06T09:29:32.156Z,17.79
2023-10-06T09:34:36.738Z,17.77
2023-10-06T09:39:40.631Z,17.86
2023-10-06T09:44:44.109Z,18.16
2023-10-06T09:49:50.498Z,18.19
2023-10-06T09:54:55.852Z,18.31
2023-10-06T10:00:00.007Z,18.37
2023-10-06T10:05:06.639Z,18.56
2023-10-06T10:10:12.091Z,18.90
2023-10-06T10:15:23.242Z,19.28
2023-10-06T10:20:27.929Z,19.48
2023-10-06T10:25:32.270Z,19.17
2023-10-06T10:30:50.641Z,19.29
2023-10-06T10:36:25.718Z,19.57
2023-10-06T10:41:32.085Z,19.80
2023-10-06T10:46:41.826Z,19.94
2023-10-06T10:51:55.266Z,19.97
2023-10-06T10:57:03.419Z,20.12
2023-10-06T11:02:09.286Z,20.57
2023-10-06T11:07:16.720Z,21.25
2023-10-06T11:17:48.355Z,21.60
2023-10-06T11:22:58.822Z,21.84
2023-10-06T11:28:05.496Z,22.49
2023-10-06T11:33:11.232Z,22.35
2023-10-06T11:38:17.185Z,22.90
2023-10-06T11:43:22.376Z,22.77
2023-10-06T11:48:26.569Z,25.02
2023-10-06T11:53:33.644Z,24.88
2023-10-06T11:58:37.315Z,24.90
2023-10-06T12:03:43.240Z,27.05
2023-10-06T12:08:53.204Z,26.80
2023-10-06T12:13:56.195Z,25.66
2023-10-06T12:19:00.972Z,25.10
2023-10-06T12:24:05.865Z,24.76
2023-10-06T12:29:09.217Z,24.56
2023-10-06T12:34:16.380Z,23.31
2023-10-06T12:39:34.622Z,23.38
2023-10-06T12:44:41.410Z,22.52
2023-10-06T12:49:45.270Z,22.25
2023-10-06T12:54:49.474Z,22.68
2023-10-06T12:59:52.257Z,23.40
2023-10-06T13:04:55.416Z,24.15
2023-10-06T13:10:03.237Z,26.40
2023-10-06T13:15:07.969Z,26.92
2023-10-06T13:20:14.860Z,25.27
2023-10-06T13:25:19.663Z,24.40
2023-10-06T13:30:22.645Z,23.49
2023-10-06T13:35:26.150Z,23.58
2023-10-06T13:40:30.901Z,24.35
2023-10-06T13:45:35.608Z,24.23
2023-10-06T13:50:38.777Z,23.64
2023-10-06T13:55:43.281Z,23.67
2023-10-06T14:00:46.165Z,22.63
2023-10-06T14:05:52.850Z,22.88
2023-10-06T14:10:58.190Z,22.48
2023-10-06T14:16:10.344Z,22.41
2023-10-06T14:21:14.697Z,21.81
2023-10-06T14:26:20.218Z,22.01
2023-10-06T14:31:27.246Z,22.00
2023-10-06T14:36:30.416Z,21.69
2023-10-06T14:41:52.291Z,21.94
2023-10-06T14:46:55.262Z,22.08
2023-10-06T14:51:59.639Z,21.92
2023-10-06T14:57:06.237Z,21.93
2023-10-06T15:07:34.538Z,21.93
2023-10-06T15:12:38.660Z,21.95
2023-10-06T15:17:41.871Z,21.88
2023-10-06T15:22:44.791Z,21.86
2023-10-06T15:27:49.389Z,21.70
2023-10-06T15:32:52.337Z,21.38
2023-10-06T15:37:57.351Z,21.23
2023-10-06T15:43:13.343Z,21.15
2023-10-06T15:48:22.633Z,20.64
2023-10-06T15:53:27.597Z,20.50
2023-10-06T15:58:33.655Z,20.21
2023-10-06T16:03:36.691Z,20.25
2023-10-06T16:08:40.053Z,19.91
2023-10-06T16:13:44.930Z,19.82
2023-10-06T16:18:48.834Z,19.54
2023-10-06T16:23:53.328Z,19.40
2023-10-06T16:28:58.627Z,19.22
2023-10-06T16:34:01.470Z,19.00
2023-10-06T16:39:16.962Z,18.91
2023-10-06T16:44:23.367Z,18.88
2023-10-06T16:49:26.445Z,18.78
2023-10-06T16:54:29.569Z,18.75
2023-10-06T16:59:36.461Z,18.79
2023-10-06T17:04:40.244Z,18.72
2023-10-06T17:09:44.141Z,18.61
2023-10-06T17:14:48.426Z,18.69
2023-10-06T17:19:51.725Z,18.60
2023-10-06T17:24:54.620Z,18.54
2023-10-06T17:29:59.404Z,18.56
2023-10-06T17:35:02.987Z,18.48
2023-10-06T17:40:07.208Z,18.36
2023-10-06T17:45:12.285Z,18.34
2023-10-06T17:50:15.176Z,18.17
2023-10-06T17:55:18.536Z,18.14
2023-10-06T18:00:22.946Z,18.22
2023-10-06T18:05:26.912Z,18.17
2023-10-06T18:10:30.345Z,18.10
2023-10-06T18:15:35.095Z,18.16
2023-10-06T18:20:39.308Z,18.05
2023-10-06T18:25:42.502Z,18.15
2023-10-06T18:30:49.091Z,18.08
2023-10-06T18:35:51.971Z,18.00
2023-10-06T18:40:57.135Z,17.92
2023-10-06T18:46:01.793Z,18.02
2023-10-06T18:51:05.176Z,17.94
2023-10-06T18:56:08.371Z,17.94
2023-10-06T19:01:14.405Z,18.00
2023-10-06T19:06:18.996Z,17.84
2023-10-06T19:11:22.497Z,17.86
2023-10-06T19:16:27.846Z,17.82
2023-10-06T19:21:32.441Z,17.83
2023-10-06T19:26:36.261Z,17.85
2023-10-06T19:31:41.256Z,17.71
2023-10-06T19:36:45.505Z,17.69
2023-10-06T19:41:48.454Z,17.65
2023-10-06T19:46:53.261Z,17.65
2023-10-06T19:51:59.453Z,17.61
2023-10-06T19:57:02.893Z,17.51
2023-10-06T20:02:10.592Z,17.49
2023-10-06T20:07:13.835Z,17.50
2023-10-06T20:12:16.733Z,17.43
2023-10-06T20:17:21.511Z,17.33
2023-10-06T20:22:24.972Z,17.24
2023-10-06T20:27:27.900Z,17.18
2023-10-06T20:32:32.765Z,17.24
2023-10-06T20:37:36.217Z,17.12
2023-10-06T20:42:39.155Z,17.20
2023-10-06T20:47:43.876Z,17.30
2023-10-06T20:52:46.889Z,17.25
2023-10-06T20:57:50.957Z,17.39
2023-10-06T21:02:56.455Z,17.44
2023-10-06T21:07:59.587Z,17.36
2023-10-06T21:13:03.159Z,17.35
2023-10-06T21:18:08.306Z,17.40
2023-10-06T21:23:11.289Z,17.42
2023-10-06T21:28:14.135Z,17.36
2023-10-06T21:33:18.412Z,17.55
2023-10-06T21:38:22.261Z,17.59
2023-10-06T21:43:25.111Z,17.50
2023-10-06T21:48:29.433Z,17.48
2023-10-06T21:53:33.772Z,17.52
2023-10-06T21:58:37.593Z,17.51
2023-10-06T22:03:41.976Z,17.55
2023-10-06T22:08:44.990Z,17.54
2023-10-06T22:13:48.586Z,17.63
2023-10-06T22:18:52.777Z,17.60
2023-10-06T22:23:55.632Z,17.58
2023-10-06T22:28:58.450Z,17.56
2023-10-06T22:34:02.700Z,17.47
2023-10-06T22:39:06.842Z,17.52
2023-10-06T22:44:10.051Z,17.46
2023-10-06T22:49:14.430Z,17.47
2023-10-06T22:54:18.610Z,17.40
2023-10-06T22:59:21.713Z,17.31
2023-10-06T23:04:27.729Z,17.33
2023-10-06T23:09:32.653Z,17.18
2023-10-06T23:14:35.460Z,17.16
2023-10-06T23:19:39.643Z,17.21
2023-10-06T23:24:51.583Z,17.10
2023-10-06T23:29:54.543Z,17.04
2023-10-06T23:34:58.694Z,17.02
2023-10-06T23:40:01.506Z,16.92
2023-10-06T23:45:07.276Z,16.86
2023-10-06T23:50:15.276Z,16.91
2023-10-06T23:55:18.538Z,16.80
